Time;durP1;ratioP1;P1;durP2;ratioP2;P2;SDS_P1;SDS_P2;PMS_P1;PMS_P2;Temp;Humidity;BMP_temperature;BMP_pressure;BME280_temperature;BME280_humidity;BME280_pressure;Samples;Min_cycle;Max_cycle;Signal;HPM_P1;HPM_P2
2023/05/08 00:00:45;;;;;;;34.38;30.45;;;;;;;12.99;100.00;101899.03;5113044;28;20028;-48
2023/05/08 00:03:10;;;;;;;30.58;27.38;;;;;;;12.91;100.00;101905.66;5113085;28;20383;-48
2023/05/08 00:05:35;;;;;;;29.02;26.00;;;;;;;12.86;100.00;101899.41;5112226;28;20034;-50
2023/05/08 00:08:01;;;;;;;29.20;26.20;;;;;;;12.83;100.00;101915.72;5112785;28;20536;-51
2023/05/08 00:10:27;;;;;;;31.23;28.02;;;;;;;12.85;100.00;101916.63;5112477;28;20071;-50
2023/05/08 00:12:53;;;;;;;32.37;28.03;;;;;;;12.84;100.00;101916.59;5112473;28;20438;-48
2023/05/08 00:15:18;;;;;;;28.45;25.48;;;;;;;12.84;100.00;101917.44;5112516;28;20471;-48
2023/05/08 00:17:45;;;;;;;30.70;27.42;;;;;;;12.81;100.00;101914.75;5112934;28;20044;-48
2023/05/08 00:20:11;;;;;;;31.88;28.50;;;;;;;12.87;100.00;101908.91;5112361;28;20110;-48
2023/05/08 00:22:36;;;;;;;30.55;27.48;;;;;;;12.82;100.00;101901.00;5115293;28;20421;-50
2023/05/08 00:25:04;;;;;;;32.58;29.08;;;;;;;12.81;100.00;101899.25;5117094;28;20459;-47
2023/05/08 00:27:29;;;;;;;31.08;27.77;;;;;;;12.78;100.00;101900.81;5116101;28;20030;-48
2023/05/08 00:29:54;;;;;;;33.15;29.65;;;;;;;12.85;100.00;101898.53;5116713;28;20024;-47
2023/05/08 00:32:20;;;;;;;34.08;30.42;;;;;;;12.83;100.00;101901.88;5116569;28;20336;-51
2023/05/08 00:34:45;;;;;;;34.10;30.63;;;;;;;12.88;100.00;101904.66;5116132;28;20026;-49
2023/05/08 00:37:10;;;;;;;35.33;30.15;;;;;;;12.83;100.00;101897.59;5116436;28;20081;-48
2023/05/08 00:39:36;;;;;;;35.53;30.80;;;;;;;12.91;100.00;101899.56;5116289;28;20027;-49
2023/05/08 00:42:01;;;;;;;34.10;30.15;;;;;;;12.85;100.00;101898.53;5116168;28;20039;-50
2023/05/08 00:44:26;;;;;;;36.70;30.33;;;;;;;12.80;100.00;101902.63;5115914;28;20098;-51
2023/05/08 00:46:52;;;;;;;36.38;31.00;;;;;;;12.82;100.00;101901.00;5116503;28;20027;-48
2023/05/08 00:49:17;;;;;;;39.33;31.85;;;;;;;12.85;100.00;101900.25;5115619;28;20066;-48
2023/05/08 00:51:45;;;;;;;38.33;32.33;;;;;;;12.84;100.00;101894.16;5116173;28;20028;-50
2023/05/08 00:54:10;;;;;;;35.00;31.27;;;;;;;12.86;100.00;101896.84;5115956;28;20023;-50
2023/05/08 00:56:37;;;;;;;35.70;31.75;;;;;;;12.83;100.00;101891.53;5115965;28;20047;-49
2023/05/08 00:59:06;;;;;;;38.20;33.10;;;;;;;12.85;100.00;101888.16;5116421;28;20059;-50
2023/05/08 01:01:35;;;;;;;36.78;31.42;;;;;;;12.83;100.00;101900.19;5115393;28;20030;-48
2023/05/08 01:04:02;;;;;;;40.17;33.42;;;;;;;12.84;100.00;101899.34;5115875;28;20035;-48
2023/05/08 01:06:27;;;;;;;34.95;31.25;;;;;;;12.80;100.00;101896.59;5115726;28;20048;-51
2023/05/08 01:08:53;;;;;;;33.33;29.50;;;;;;;12.84;100.00;101901.94;5115461;28;20141;-48
2023/05/08 01:11:30;;;;;;;31.65;27.23;;;;;;;12.86;100.00;101896.84;5115602;28;20031;-52
2023/05/08 01:14:28;;;;;;;32.97;28.75;;;;;;;12.85;100.00;101895.06;5116052;28;20055;-48
2023/05/08 01:17:10;;;;;;;31.40;27.88;;;;;;;12.80;100.00;101892.28;5115565;28;20027;-49
2023/05/08 01:20:00;;;;;;;31.92;28.67;;;;;;;12.81;100.00;101899.25;5115303;28;20416;-51
2023/05/08 01:22:59;;;;;;;35.72;31.83;;;;;;;12.83;100.00;101891.53;5114911;28;20036;-51
2023/05/08 01:25:46;;;;;;;37.05;31.00;;;;;;;12.81;100.00;101888.88;5115217;28;20525;-51
2023/05/08 01:28:30;;;;;;;35.05;31.27;;;;;;;12.82;100.00;101888.06;5115811;28;20153;-48
2023/05/08 01:31:10;;;;;;;37.80;31.35;;;;;;;12.83;100.00;101884.66;5115103;28;20037;-48
2023/05/08 01:33:45;;;;;;;35.05;30.48;;;;;;;12.79;100.00;101890.53;5113674;28;20027;-50
2023/05/08 01:36:19;;;;;;;30.95;27.65;;;;;;;12.75;100.00;101896.41;5115710;28;20038;-48
2023/05/08 01:38:54;;;;;;;31.08;27.70;;;;;;;12.76;100.00;101900.78;5115500;28;20023;-48
2023/05/08 01:41:26;;;;;;;28.55;25.45;;;;;;;12.76;100.00;101895.59;5115142;28;20032;-48
2023/05/08 01:44:15;;;;;;;28.27;25.38;;;;;;;12.73;100.00;101895.50;5114766;28;20379;-49
2023/05/08 01:46:46;;;;;;;27.45;24.73;;;;;;;12.64;100.00;101896.03;5115297;28;20161;-50
2023/05/08 01:49:20;;;;;;;30.98;26.35;;;;;;;12.61;100.00;101895.88;5115426;28;20062;-49
2023/05/08 01:52:01;;;;;;;30.55;27.38;;;;;;;12.71;100.00;101891.09;5114778;28;20030;-48
2023/05/08 01:54:33;;;;;;;30.90;27.63;;;;;;;12.65;100.00;101896.88;5114920;28;20060;-49
2023/05/08 01:57:00;;;;;;;29.90;26.75;;;;;;;12.61;100.00;101892.44;5115412;28;20026;-48
2023/05/08 01:59:27;;;;;;;32.10;28.60;;;;;;;12.60;100.00;101896.72;5114126;28;20515;-51
2023/05/08 02:01:56;;;;;;;32.03;28.52;;;;;;;12.64;100.00;101900.28;5114973;28;20077;-48
2023/05/08 02:04:22;;;;;;;34.75;30.88;;;;;;;12.68;100.00;101903.06;5114938;28;20028;-50
2023/05/08 02:06:50;;;;;;;33.42;29.85;;;;;;;12.67;100.00;101905.59;5114231;28;20026;-47
2023/05/08 02:09:15;;;;;;;;;;;;;;;12.75;100.00;101901.59;5115212;28;20065;-48
2023/05/08 02:11:43;;;;;;;34.00;29.85;;;;;;;12.69;100.00;101909.09;5114156;28;19916;-49
2023/05/08 02:14:12;;;;;;;35.35;31.48;;;;;;;12.71;100.00;101911.78;5114719;28;20051;-50
2023/05/08 02:16:39;;;;;;;38.28;32.83;;;;;;;12.72;100.00;101906.66;5114497;28;20371;-49
2023/05/08 02:19:07;;;;;;;40.40;34.40;;;;;;;12.73;100.00;101900.66;5114266;28;20105;-48
2023/05/08 02:21:34;;;;;;;40.42;35.85;;;;;;;12.73;100.00;101898.09;5114371;28;20048;-48
2023/05/08 02:24:00;;;;;;;45.53;38.90;;;;;;;12.73;100.00;101908.44;5114475;28;20437;-47
2023/05/08 02:26:26;;;;;;;52.72;40.58;;;;;;;12.73;100.00;101905.84;5113827;28;20034;-49
2023/05/08 02:28:54;;;;;;;53.75;40.42;;;;;;;12.72;100.00;101903.16;5114579;28;20032;-48
2023/05/08 02:31:20;;;;;;;47.55;39.72;;;;;;;12.72;100.00;101906.66;5114517;28;20110;-48
2023/05/08 02:33:47;;;;;;;48.50;39.92;;;;;;;12.74;100.00;101907.56;5113809;28;20031;-51
2023/05/08 02:36:16;;;;;;;51.85;41.50;;;;;;;12.71;100.00;101917.81;5114085;28;20550;-51
2023/05/08 02:38:45;;;;;;;47.85;40.33;;;;;;;12.70;100.00;101916.06;5114472;28;20027;-47
2023/05/08 02:41:12;;;;;;;54.95;41.55;;;;;;;12.71;100.00;101915.22;5113817;28;20073;-47
2023/05/08 02:43:37;;;;;;;52.25;42.55;;;;;;;12.72;100.00;101913.50;5113474;28;20027;-48
2023/05/08 02:46:13;;;;;;;52.30;41.83;;;;;;;12.72;100.00;101921.28;5114448;28;20023;-52
2023/05/08 02:49:07;;;;;;;51.60;41.05;;;;;;;12.70;100.00;101921.22;5113441;28;20106;-50
2023/05/08 02:51:43;;;;;;;56.42;40.63;;;;;;;12.68;100.00;101912.53;5113831;28;20023;-49
2023/05/08 02:54:16;;;;;;;56.25;42.00;;;;;;;12.62;100.00;101909.72;5113498;28;20023;-50
2023/05/08 02:56:58;;;;;;;48.15;38.45;;;;;;;12.61;100.00;101913.13;5113720;28;20023;-49
2023/05/08 02:59:35;;;;;;;47.15;39.53;;;;;;;12.55;100.00;101912.88;5113593;28;20059;-48
2023/05/08 03:02:29;;;;;;;50.58;39.60;;;;;;;12.51;100.00;101905.00;5113366;28;20034;-52
2023/05/08 03:05:02;;;;;;;52.10;42.00;;;;;;;12.57;100.00;101909.53;5095450;28;20058;-47
2023/05/08 03:07:29;;;;;;;52.42;40.92;;;;;;;12.52;100.00;101911.06;5113716;28;20024;-49
2023/05/08 03:10:04;;;;;;;52.67;40.13;;;;;;;12.51;100.00;101907.59;5112815;28;20074;-48
2023/05/08 03:12:33;;;;;;;45.17;39.15;;;;;;;12.56;100.00;101906.88;5113447;28;20031;-47
2023/05/08 03:15:05;;;;;;;46.53;37.38;;;;;;;12.52;100.00;101909.38;5113030;28;20023;-49
2023/05/08 03:17:32;;;;;;;43.70;36.25;;;;;;;12.47;100.00;101908.31;5113060;28;20371;-48
2023/05/08 03:20:01;;;;;;;;;;;;;;;12.60;100.00;101904.50;5114248;28;20035;-48
2023/05/08 03:22:27;;;;;;;41.95;34.47;;;;;;;12.37;100.00;101908.78;5112731;28;19911;-48
2023/05/08 03:24:56;;;;;;;41.03;33.70;;;;;;;12.35;100.00;101907.81;5113383;28;20032;-47
2023/05/08 03:27:21;;;;;;;40.58;35.10;;;;;;;12.34;100.00;101903.47;5113246;28;20122;-48
2023/05/08 03:29:49;;;;;;;44.10;36.17;;;;;;;12.32;100.00;101905.13;5112946;28;20457;-50
2023/05/08 03:32:16;;;;;;;44.03;37.75;;;;;;;12.30;100.00;101904.16;5113044;28;20020;-48
2023/05/08 03:34:42;;;;;;;48.15;38.10;;;;;;;12.24;100.00;101898.75;5113658;28;20032;-47
2023/05/08 03:37:07;;;;;;;56.15;41.47;;;;;;;12.22;100.00;101896.13;5112853;28;20566;-47
2023/05/08 03:39:33;;;;;;;61.30;44.70;;;;;;;12.25;100.00;101901.41;5113012;28;20051;-51
2023/05/08 03:41:58;;;;;;;66.38;46.55;;;;;;;12.27;100.00;101906.66;5113215;28;20063;-51
2023/05/08 03:44:27;;;;;;;58.40;43.25;;;;;;;12.22;100.00;101892.66;5112286;28;20030;-51
2023/05/08 03:46:56;;;;;;;53.70;40.40;;;;;;;12.11;100.00;101895.69;5112855;28;20458;-48
2023/05/08 03:49:24;;;;;;;53.45;41.28;;;;;;;12.08;100.00;101895.56;5112896;28;20459;-49
2023/05/08 03:51:50;;;;;;;;;;;;;;;12.24;100.00;101898.75;5112758;28;20024;-47
2023/05/08 03:54:15;;;;;;;46.15;38.53;;;;;;;12.06;100.00;101884.28;5113332;28;19916;-49
2023/05/08 03:56:40;;;;;;;59.45;44.03;;;;;;;12.06;100.00;101889.47;5114776;28;20051;-53
2023/05/08 03:59:16;;;;;;;57.53;44.58;;;;;;;12.08;100.00;101892.09;5116444;28;20024;-48
2023/05/08 04:02:11;;;;;;;67.82;48.65;;;;;;;12.14;100.00;101892.34;5117508;28;20046;-52
2023/05/08 04:04:39;;;;;;;65.68;47.60;;;;;;;12.09;100.00;101894.75;5116513;28;20443;-52
2023/05/08 04:07:14;;;;;;;67.03;47.28;;;;;;;12.10;100.00;101893.06;5117061;28;20034;-49
2023/05/08 04:09:50;;;;;;;75.07;52.53;;;;;;;12.15;100.00;101895.00;5116756;28;20129;-51
2023/05/08 04:12:21;;;;;;;73.60;51.25;;;;;;;12.12;100.00;101894.88;5116519;28;20036;-49
2023/05/08 04:14:54;;;;;;;69.30;49.15;;;;;;;12.12;100.00;101900.06;5116924;28;20058;-52
2023/05/08 04:17:35;;;;;;;70.50;51.05;;;;;;;12.18;100.00;101905.44;5116805;28;20429;-50
2023/05/08 04:20:03;;;;;;;87.13;53.75;;;;;;;12.18;100.00;101900.28;5116109;28;20422;-52
2023/05/08 04:22:32;;;;;;;68.10;49.58;;;;;;;12.10;100.00;101905.97;5116367;28;20023;-51
2023/05/08 04:25:00;;;;;;;80.82;53.05;;;;;;;12.10;100.00;101905.97;5116944;28;20069;-51
2023/05/08 04:27:25;;;;;;;;;;;;;;;12.17;100.00;101908.88;5116101;28;20375;-52
2023/05/08 04:29:53;;;;;;;79.18;51.00;;;;;;;12.15;100.00;101918.25;5116790;28;19919;-52
2023/05/08 04:32:19;;;;;;;82.18;52.22;;;;;;;12.16;100.00;101907.09;5115829;28;20028;-51
2023/05/08 04:34:44;;;;;;;76.32;51.97;;;;;;;12.14;100.00;101913.03;5116333;28;20114;-48
2023/05/08 04:37:23;;;;;;;79.07;55.33;;;;;;;12.12;100.00;101915.56;5116771;28;20054;-52
2023/05/08 04:39:50;;;;;;;78.85;52.58;;;;;;;12.11;100.00;101921.53;5116381;28;20024;-51
2023/05/08 04:42:15;;;;;;;83.65;53.45;;;;;;;12.15;100.00;101914.81;5116147;28;20035;-50
2023/05/08 04:44:40;;;;;;;82.97;54.10;;;;;;;12.18;100.00;101914.91;5116556;28;20027;-53
2023/05/08 04:47:05;;;;;;;74.60;51.97;;;;;;;12.18;100.00;101920.94;5115882;28;20413;-51
2023/05/08 04:49:31;;;;;;;81.32;52.15;;;;;;;12.16;100.00;101925.19;5116194;28;20042;-51
2023/05/08 04:51:56;;;;;;;73.50;50.10;;;;;;;12.18;100.00;101926.13;5116505;28;20397;-49
2023/05/08 04:54:22;;;;;;;77.47;50.28;;;;;;;12.23;100.00;101925.44;5115754;28;20027;-52
2023/05/08 04:56:47;;;;;;;77.90;50.45;;;;;;;12.29;100.00;101928.25;5116096;28;20019;-51
2023/05/08 04:59:12;;;;;;;82.28;53.70;;;;;;;12.34;100.00;101927.63;5116322;28;20075;-52
2023/05/08 05:01:38;;;;;;;91.18;57.35;;;;;;;12.44;100.00;101939.19;5115278;28;20027;-52
2023/05/08 05:04:03;;;;;;;81.65;53.92;;;;;;;12.51;100.00;101936.03;5116050;28;20467;-51
2023/05/08 05:06:28;;;;;;;88.97;55.83;;;;;;;12.61;100.00;101936.41;5116458;28;20019;-52
2023/05/08 05:08:54;;;;;;;84.05;56.50;;;;;;;12.64;100.00;101942.56;5115178;28;20074;-52
2023/05/08 05:11:20;;;;;;;103.25;60.47;;;;;;;12.68;100.00;101941.00;5115262;28;20463;-49
2023/05/08 05:13:45;;;;;;;96.13;58.95;;;;;;;12.74;100.00;101948.97;5115942;28;20036;-51
2023/05/08 05:16:10;;;;;;;105.38;61.28;;;;;;;12.80;100.00;101949.22;5115023;28;20031;-52
2023/05/08 05:18:36;;;;;;;103.50;60.92;;;;;;;12.81;100.00;101950.09;5115462;28;20072;-52
2023/05/08 05:21:02;;;;;;;145.40;70.82;;;;;;;12.84;100.00;101958.84;5116050;28;20024;-52
2023/05/08 05:23:27;;;;;;;168.48;75.43;;;;;;;12.84;100.00;101961.44;5114801;28;20035;-50
2023/05/08 05:25:53;;;;;;;164.20;73.10;;;;;;;12.82;100.00;101968.28;5115686;28;20023;-52
2023/05/08 05:28:18;;;;;;;201.73;75.20;;;;;;;12.87;100.00;101964.97;5115372;28;20035;-51
2023/05/08 05:30:46;;;;;;;162.85;76.03;;;;;;;12.91;100.00;101964.25;5114839;28;20056;-52
2023/05/08 05:33:11;;;;;;;159.38;77.13;;;;;;;12.94;100.00;101965.25;5115560;28;20044;-51
2023/05/08 05:35:36;;;;;;;216.73;81.05;;;;;;;12.90;100.00;101965.06;5114662;28;20024;-52
2023/05/08 05:38:02;;;;;;;163.10;77.43;;;;;;;13.07;100.00;101966.59;5115170;28;20019;-52
2023/05/08 05:40:27;;;;;;;180.65;81.55;;;;;;;13.03;100.00;101967.31;5115291;28;20102;-52
2023/05/08 05:42:52;;;;;;;204.90;86.38;;;;;;;13.13;100.00;101963.34;5114945;28;20047;-51
2023/05/08 05:45:17;;;;;;;229.30;88.63;;;;;;;13.15;100.00;101975.53;5114790;28;20031;-51
2023/05/08 05:47:45;;;;;;;188.18;83.05;;;;;;;13.05;100.00;101970.81;5115342;28;20023;-52
2023/05/08 05:50:10;;;;;;;162.18;81.35;;;;;;;13.11;100.00;101981.41;5114814;28;20026;-52
2023/05/08 05:52:36;;;;;;;158.50;82.10;;;;;;;13.13;100.00;101974.59;5114841;28;20016;-53
2023/05/08 05:55:01;;;;;;;190.10;87.03;;;;;;;13.18;100.00;101978.25;5115277;28;20038;-51
2023/05/08 05:57:26;;;;;;;163.82;87.57;;;;;;;13.25;100.00;101978.47;5114346;28;20065;-52
2023/05/08 05:59:51;;;;;;;155.20;85.82;;;;;;;13.32;100.00;101985.63;5114813;28;20481;-51
2023/05/08 06:02:19;;;;;;;178.70;91.32;;;;;;;13.53;100.00;101982.97;5114535;28;20027;-52
2023/05/08 06:04:44;;;;;;;176.52;90.15;;;;;;;13.57;100.00;101987.44;5114602;28;20063;-51
2023/05/08 06:07:09;;;;;;;187.25;90.10;;;;;;;13.61;100.00;101985.84;5114888;28;20051;-51
2023/05/08 06:09:35;;;;;;;176.93;89.82;;;;;;;13.68;100.00;101985.22;5114383;28;20050;-52
2023/05/08 06:12:01;;;;;;;172.40;90.18;;;;;;;13.70;100.00;101983.56;5114397;28;20406;-50
2023/05/08 06:14:26;;;;;;;170.55;88.75;;;;;;;13.73;100.00;101978.47;5114155;28;20105;-52
2023/05/08 06:16:51;;;;;;;152.93;84.25;;;;;;;13.78;100.00;101979.53;5114847;28;20030;-52
2023/05/08 06:19:17;;;;;;;169.45;87.50;;;;;;;13.83;100.00;101975.38;5112968;28;20023;-52
2023/05/08 06:21:42;;;;;;;163.07;90.00;;;;;;;13.94;100.00;101978.34;5114687;28;20020;-52
2023/05/08 06:24:08;;;;;;;176.98;89.38;;;;;;;14.03;100.00;101982.94;5114424;28;20047;-51
2023/05/08 06:26:33;;;;;;;129.80;85.90;;;;;;;13.87;100.00;101980.69;5113563;28;20053;-52
2023/05/08 06:28:58;;;;;;;125.30;82.72;;;;;;;13.95;100.00;101981.81;5114365;28;20020;-52
2023/05/08 06:31:23;;;;;;;151.07;90.55;;;;;;;14.18;100.00;101981.69;5113986;28;20042;-53
2023/05/08 06:33:49;;;;;;;163.15;96.03;;;;;;;14.27;100.00;101982.00;5113458;28;20035;-52
2023/05/08 06:36:14;;;;;;;158.50;95.97;;;;;;;14.27;100.00;101987.19;5114345;28;20019;-49
2023/05/08 06:38:39;;;;;;;132.52;88.63;;;;;;;14.31;100.00;101983.88;5114079;28;20526;-50
2023/05/08 06:41:05;;;;;;;115.72;80.05;;;;;;;14.26;100.00;101994.06;5113563;28;20032;-52
2023/05/08 06:43:30;;;;;;;115.38;79.68;;;;;;;14.35;100.00;101995.22;5113681;28;20020;-50
2023/05/08 06:45:55;;;;;;;110.75;81.32;;;;;;;14.45;100.00;101985.19;5113612;28;20016;-49
2023/05/08 06:48:21;;;;;;;109.75;78.63;;;;;;;14.50;100.00;101990.53;5113587;28;20088;-48
2023/05/08 06:50:46;;;;;;;103.70;74.85;;;;;;;14.48;100.00;101989.59;5114121;28;20020;-51
2023/05/08 06:53:12;;;;;;;104.72;76.13;;;;;;;14.45;100.00;101998.16;5113561;28;20024;-52
2023/05/08 06:55:37;;;;;;;94.18;71.07;;;;;;;14.40;100.00;102004.03;5113420;28;20356;-52
2023/05/08 06:58:03;;;;;;;89.72;69.80;;;;;;;14.33;100.00;102002.94;5113929;28;20039;-53
2023/05/08 07:00:28;;;;;;;91.45;72.15;;;;;;;14.38;100.00;102001.38;5112971;28;20471;-52
2023/05/08 07:02:54;;;;;;;93.55;70.68;;;;;;;14.40;100.00;102004.91;5113470;28;20032;-52
2023/05/08 07:05:19;;;;;;;92.20;70.03;;;;;;;14.36;100.00;102002.16;5113429;28;20030;-53
2023/05/08 07:07:45;;;;;;;85.40;66.75;;;;;;;14.25;100.00;102004.41;5113287;28;20070;-52
2023/05/08 07:10:10;;;;;;;87.97;68.28;;;;;;;14.30;100.00;102013.22;5113480;28;20123;-53
2023/05/08 07:12:35;;;;;;;90.38;69.28;;;;;;;14.30;100.00;102018.41;5113459;28;20085;-52
2023/05/08 07:15:01;;;;;;;89.07;67.32;;;;;;;14.22;100.00;102019.88;5113084;28;20046;-50
2023/05/08 07:17:26;;;;;;;96.22;68.53;;;;;;;14.24;100.00;102013.00;5113057;28;20367;-51
2023/05/08 07:19:52;;;;;;;91.90;67.85;;;;;;;14.21;100.00;102007.75;5113761;28;20015;-50
2023/05/08 07:22:17;;;;;;;87.38;67.28;;;;;;;14.24;100.00;102013.00;5112634;28;20071;-52
2023/05/08 07:24:42;;;;;;;89.78;67.68;;;;;;;14.31;100.00;102015.84;5113403;28;20034;-51
2023/05/08 07:27:08;;;;;;;89.35;66.28;;;;;;;14.32;100.00;102011.56;5113423;28;20410;-47
2023/05/08 07:29:36;;;;;;;89.15;66.25;;;;;;;14.37;100.00;102020.38;5112285;28;20020;-52
2023/05/08 07:32:06;;;;;;;85.20;65.93;;;;;;;14.41;100.00;102016.16;5113552;28;20030;-51
2023/05/08 07:34:32;;;;;;;81.13;63.20;;;;;;;14.44;100.00;102014.53;5113046;28;20391;-52
2023/05/08 07:36:58;;;;;;;80.38;63.38;;;;;;;14.46;100.00;102012.91;5112785;28;20043;-52
2023/05/08 07:39:23;;;;;;;83.85;60.78;;;;;;;14.53;100.00;102005.31;5112997;28;20051;-52
2023/05/08 07:41:48;;;;;;;77.70;61.47;;;;;;;14.58;100.00;102003.75;5113513;28;20019;-52
2023/05/08 07:44:13;;;;;;;73.28;59.70;;;;;;;14.56;100.00;102013.19;5112382;28;20058;-51
2023/05/08 07:46:39;;;;;;;74.32;59.10;;;;;;;14.66;100.00;102007.50;5113155;28;20019;-52
2023/05/08 07:49:05;;;;;;;71.72;58.53;;;;;;;14.86;100.00;102009.81;5112781;28;20375;-52
2023/05/08 07:51:31;;;;;;;71.88;58.30;;;;;;;14.93;100.00;102006.59;5112685;28;20450;-48
2023/05/08 07:53:56;;;;;;;70.72;58.78;;;;;;;15.11;100.00;102001.06;5113276;28;20035;-51
2023/05/08 07:56:21;;;;;;;67.35;57.30;;;;;;;15.24;100.00;102002.28;5112402;28;20016;-51
2023/05/08 07:58:47;;;;;;;69.72;58.28;;;;;;;15.57;100.00;102009.25;5112821;28;20034;-52
2023/05/08 08:01:12;;;;;;;67.82;56.83;;;;;;;15.74;100.00;102002.81;5113289;28;20028;-51
2023/05/08 08:03:37;;;;;;;64.05;55.20;;;;;;;16.04;100.00;102006.22;5112491;28;20041;-52
2023/05/08 08:06:03;;;;;;;59.28;52.65;;;;;;;16.13;100.00;102009.91;5113076;28;20023;-51
2023/05/08 08:08:28;;;;;;;57.33;49.28;;;;;;;16.41;100.00;102004.50;5112618;28;20429;-51
2023/05/08 08:10:53;;;;;;;55.22;49.03;;;;;;;16.28;100.00;102009.44;5112515;28;20475;-51
2023/05/08 08:13:19;;;;;;;56.67;49.58;;;;;;;16.52;100.00;102012.59;5112300;28;20042;-51
2023/05/08 08:15:44;;;;;;;55.70;49.13;;;;;;;16.79;100.00;102004.53;5113198;28;20464;-48
2023/05/08 08:18:10;;;;;;;54.45;48.00;;;;;;;17.24;100.00;102008.13;5112273;28;20027;-51
2023/05/08 08:20:36;;;;;;;55.08;48.22;;;;;;;17.22;100.00;102012.41;5112357;28;20556;-51
2023/05/08 08:23:02;;;;;;;50.30;44.90;;;;;;;17.67;100.00;102016.78;5112918;28;20023;-51
2023/05/08 08:25:27;;;;;;;49.85;44.47;;;;;;;17.78;100.00;102019.59;5111976;28;20026;-51
2023/05/08 08:27:52;;;;;;;48.30;42.35;;;;;;;17.62;100.00;102018.44;5112796;28;20020;-51
2023/05/08 08:30:17;;;;;;;45.28;40.42;;;;;;;17.61;100.00;102014.06;5112757;28;20023;-51
2023/05/08 08:32:43;;;;;;;42.28;37.72;;;;;;;17.51;100.00;102012.16;5111986;28;20483;-51
2023/05/08 08:35:08;;;;;;;43.47;38.97;;;;;;;17.48;100.00;102006.84;5112827;28;20020;-48
2023/05/08 08:37:34;;;;;;;43.25;38.65;;;;;;;17.51;100.00;102010.41;5112475;28;20069;-52
2023/05/08 08:40:00;;;;;;;41.97;37.55;;;;;;;17.66;100.00;102003.72;5111994;28;20016;-50
2023/05/08 08:42:25;;;;;;;39.72;35.20;;;;;;;17.47;100.00;102007.69;5113107;28;20028;-51
2023/05/08 08:44:51;;;;;;;39.33;34.70;;;;;;;17.35;100.00;102008.34;5116759;28;20026;-51
2023/05/08 08:47:18;;;;;;;40.35;36.25;;;;;;;17.47;100.00;102007.69;5115419;28;20038;-51
2023/05/08 08:49:47;;;;;;;41.33;36.90;;;;;;;17.53;100.00;102013.03;5116598;28;20123;-51
2023/05/08 08:52:37;;;;;;;42.30;37.70;;;;;;;17.62;100.00;102015.81;5116469;28;20023;-51
2023/05/08 08:55:07;;;;;;;42.78;38.08;;;;;;;18.01;100.00;102009.63;5116116;28;20030;-49
2023/05/08 08:57:35;;;;;;;41.53;37.10;;;;;;;17.87;100.00;102006.72;5116456;28;20020;-47
2023/05/08 09:00:04;;;;;;;40.17;35.88;;;;;;;18.25;100.00;102006.53;5115583;28;20356;-51
2023/05/08 09:02:30;;;;;;;38.90;34.92;;;;;;;18.72;100.00;102008.13;5115529;28;20420;-52
2023/05/08 09:04:56;;;;;;;40.85;36.55;;;;;;;18.89;100.00;102010.09;5116305;28;20047;-52
2023/05/08 09:07:23;;;;;;;38.75;34.88;;;;;;;18.82;100.00;102009.13;5115278;28;20058;-52
2023/05/08 09:09:49;;;;;;;38.25;34.25;;;;;;;18.82;100.00;102013.47;5115480;28;20048;-51
2023/05/08 09:12:14;;;;;;;35.03;31.50;;;;;;;18.78;100.00;102012.56;5116176;28;20035;-48
2023/05/08 09:14:40;;;;;;;36.50;32.70;;;;;;;18.93;100.00;102011.94;5115095;28;20429;-51
2023/05/08 09:17:05;;;;;;;34.80;31.30;;;;;;;19.18;100.00;102020.09;5116023;28;20465;-48
2023/05/08 09:19:32;;;;;;;35.10;31.40;;;;;;;19.16;100.00;102017.47;5115636;28;20030;-51
2023/05/08 09:22:02;;;;;;;36.80;33.13;;;;;;;19.03;100.00;102024.25;5115049;28;20356;-52
2023/05/08 09:24:52;;;;;;;38.55;34.58;;;;;;;19.00;100.00;102026.81;5115586;28;20035;-51
2023/05/08 09:27:22;;;;;;;38.47;34.47;;;;;;;18.51;100.00;102023.47;5115598;28;20028;-52
2023/05/08 09:30:06;;;;;;;40.20;34.65;;;;;;;18.40;100.00;102016.34;5114988;28;20061;-49
2023/05/08 09:32:34;;;;;;;39.10;34.60;;;;;;;18.21;100.00;102014.31;5115125;28;20375;-50
2023/05/08 09:35:00;;;;;;;37.65;33.72;;;;;;;18.36;100.00;102019.78;5115212;28;20024;-50
2023/05/08 09:37:27;;;;;;;38.67;34.60;;;;;;;18.64;100.00;102020.19;5115136;28;20024;-51
2023/05/08 09:39:53;;;;;;;37.33;33.30;;;;;;;18.78;100.00;102019.53;5115506;28;20462;-51
2023/05/08 09:42:19;;;;;;;38.28;34.22;;;;;;;18.76;100.00;102022.13;5114694;28;20042;-52
2023/05/08 09:44:47;;;;;;;35.40;31.77;;;;;;;19.06;100.00;102013.84;5115226;28;20023;-51
2023/05/08 09:47:19;;;;;;;36.92;33.08;;;;;;;19.18;100.00;102014.84;5115193;28;20455;-51
2023/05/08 09:50:24;;;;;;;37.25;33.28;;;;;;;19.46;100.00;102012.56;5114594;28;20352;-50
2023/05/08 09:52:49;;;;;;;35.83;31.92;;;;;;;19.40;100.00;102014.25;5032672;28;20026;-52
2023/05/08 09:55:15;;;;;;;36.30;32.40;;;;;;;19.19;99.83;102019.22;5031465;28;20381;-52
2023/05/08 09:57:56;;;;;;;38.88;33.70;;;;;;;19.06;99.92;102019.06;5070777;28;20035;-47
2023/05/08 10:00:22;;;;;;;38.38;34.33;;;;;;;19.19;100.00;102024.47;5114831;28;20020;-50
2023/05/08 10:02:58;;;;;;;37.60;33.63;;;;;;;19.26;100.00;102023.66;5114545;28;20115;-49
2023/05/08 10:05:31;;;;;;;37.63;33.83;;;;;;;19.20;100.00;102021.00;5114595;28;20028;-51
2023/05/08 10:08:22;;;;;;;38.10;33.50;;;;;;;19.64;100.00;102018.00;5114918;28;20039;-49
2023/05/08 10:10:48;;;;;;;37.10;33.33;;;;;;;19.24;98.24;102020.16;5113919;28;20047;-51
2023/05/08 10:13:13;;;;;;;38.00;33.88;;;;;;;19.03;100.00;102019.03;5114740;28;20364;-51
2023/05/08 10:15:41;;;;;;;38.22;34.25;;;;;;;19.06;100.00;102024.28;5114556;28;20531;-51
2023/05/08 10:18:07;;;;;;;41.88;37.53;;;;;;;18.80;100.00;102020.41;5114075;28;20027;-51
2023/05/08 10:20:36;;;;;;;46.38;39.58;;;;;;;18.27;100.00;102024.84;5114233;28;20023;-52
2023/05/08 10:23:05;;;;;;;48.90;42.28;;;;;;;18.00;100.00;102026.13;5114502;28;20371;-51
2023/05/08 10:25:34;;;;;;;49.17;41.92;;;;;;;17.94;100.00;102031.22;5113615;28;20088;-52
2023/05/08 10:28:12;;;;;;;47.95;42.72;;;;;;;17.90;100.00;102027.63;5114650;28;20027;-51
2023/05/08 10:30:43;;;;;;;46.47;41.58;;;;;;;17.91;100.00;102023.31;5114273;28;20446;-52
2023/05/08 10:33:09;;;;;;;47.63;42.17;;;;;;;17.89;100.00;102025.00;5113626;28;20075;-50
2023/05/08 10:35:36;;;;;;;50.67;43.75;;;;;;;17.75;100.00;102025.66;5114294;28;20095;-52
2023/05/08 10:38:03;;;;;;;51.58;44.40;;;;;;;17.73;100.00;102026.47;5113875;28;20023;-53
2023/05/08 10:40:28;;;;;;;52.70;45.57;;;;;;;17.87;100.00;102021.47;5113874;28;20156;-52
2023/05/08 10:42:55;;;;;;;54.88;46.00;;;;;;;17.93;100.00;102024.25;5114144;28;20126;-48
2023/05/08 10:45:20;;;;;;;53.30;45.37;;;;;;;18.14;100.00;102018.53;5113427;28;20104;-50
2023/05/08 10:48:18;;;;;;;53.28;44.13;;;;;;;18.31;100.00;102021.44;5114199;28;20073;-53
2023/05/08 10:51:12;;;;;;;55.67;46.50;;;;;;;18.43;100.00;102032.03;5114260;28;20024;-52
2023/05/08 10:53:45;;;;;;;53.17;44.58;;;;;;;18.48;100.00;102018.22;5113053;28;20045;-53
2023/05/08 10:56:10;;;;;;;52.50;45.65;;;;;;;18.48;100.00;102023.44;5095576;28;20046;-53
2023/05/08 10:58:38;;;;;;;51.88;44.33;;;;;;;18.64;100.00;102012.34;5093181;28;20032;-52
2023/05/08 11:01:06;;;;;;;;;;;;;;;19.02;100.00;102011.19;5093297;28;20432;-54
2023/05/08 11:03:36;;;;;;;54.35;45.22;;;;;;;19.08;100.00;102012.13;5093073;28;20322;-53
2023/05/08 11:06:02;;;;;;;53.90;44.40;;;;;;;19.41;100.00;102010.78;5092633;28;20031;-53
2023/05/08 11:08:28;;;;;;;52.88;44.83;;;;;;;19.54;100.00;102008.31;5092668;28;20032;-52